X  Schließen METAR Luftfahrt Wetterdaten     EHKD De Kooy Airport
Temperatur
9°C Temperatur
1°C Taupunkt
58% Feuchtigkeit



Wind
5 M/S
12 MPS
19 KM/S
10 KTS



240°
WSW
Aktuelle Wetterlage

Teilweise bewölkt Teilweise bewölkt
Luftdruck 1019.98 (hPa) - 30.12 (inHg)
Sichtweite 6 (Meile) - 9.7 (Km)
Flughafen
Flughafen Code EHKD

Position : De Kooy Airport
Entfernung: 34 (Km)

Metar:
EHKD 231125Z AUTO 24010KT 200V270 9999 FEW035 BKN044 BKN050 09/01 Q1020 BLU NOSIG

Zeit: 23-04-2024 13:25 CEST